ADDS METAR Data INFO
IDs: Format: Raw Decoded Include TAF

Data at: 1246 UTC 19 Oct 2017

PAUN 191156Z AUTO 10005KT 10SM CLR M09/M12 A2958 RMK AO2 SLP022 T10941117 11033 21094 58000 FZRANO
PAUN 191056Z AUTO 11003KT 10SM CLR M09/M12 A2959 RMK AO2 SLP024 T10891122 FZRANO
PAUN 190956Z AUTO 00000KT 10SM CLR M07/M10 A2959 RMK AO2 SLP024 T10671100 FZRANO
PAUN 190856Z AUTO 01008KT 10SM CLR M06/M10 A2958 RMK AO2 SLP022 T10561100 400061056 51014 FZRANO
PAUN 190756Z AUTO 04007KT 10SM CLR M04/M10 A2958 RMK AO2 SLP020 T10441100 FZRANO
PAUN 190656Z AUTO 35010KT 10SM CLR M04/M08 A2956 RMK AO2 SLP013 T10391078 FZRANO
PAUN 190556Z AUTO 36009KT 10SM CLR M03/M08 A2954 RMK AO2 SLP008 T10331078 10006 21039 53003 FZRANO
PAUN 190456Z AUTO 36004KT 10SM FEW044 M03/M08 A2954 RMK AO2 SLP008 T10331078 FZRANO
PAUN 190356Z AUTO 01009KT 10SM OVC046 M02/M08 A2953 RMK AO2 SLP004 T10221078 FZRANO
PAUN 190256Z AUTO 01008KT 10SM OVC048 M02/M08 A2953 RMK AO2 SLP005 T10171083 53004 FZRANO
PAUN 190156Z AUTO 35012KT 10SM FEW046 M01/M08 A2952 RMK AO2 SLP001 T10111083 FZRANO
PAUN 182356Z AUTO 34009KT 10SM BKN047 BKN055 01/M06 A2952 RMK AO2 SNE15 SLP001 P0000 60000 T00061056 10006 21033 53002 FZRANO
PAUN 182256Z AUTO 33014KT 9SM -SN SCT028 BKN038 OVC048 01/M05 A2952 RMK AO2 RAB48E50SNB50 SLP000 P0000 T00061050 FZRANO
PAUN 182156Z AUTO 35011KT 10SM FEW013 01/M04 A2951 RMK AO2 SNE44 SLP998 P0000 T00061039 FZRANO
PAUN 182151Z AUTO 35011KT 10SM FEW016 SCT036 01/M03 A2951 RMK AO2 SNE44 P0000 FZRANO
PAUN 182126Z AUTO 34010KT 8SM -SN FEW007 BKN016 OVC024 M01/M02 A2952 RMK AO2 P0000 FZRANO
PAUN 182119Z AUTO 33007KT 2SM -SN BR SCT007 BKN016 OVC022 M01/M02 A2952 RMK AO2 P0000 FZRANO
PAUN 182116Z AUTO 34007KT 1SM -SN BR SCT007 BKN016 OVC022 M01/M02 A2952 RMK AO2 P0000 FZRANO
PAUN 182056Z AUTO 35008KT 1 1/4SM -SN BR SCT007 BKN023 BKN032 00/M02 A2952 RMK AO2 RAB41E48SNB48 SLP001 P0000 60000 T00001022 50001 FZRANO
PAUN 182053Z AUTO 34009KT 2 1/2SM -SN FEW009 SCT023 BKN032 00/M03 A2952 RMK AO2 RAB41E48SNB48 P0000 FZRANO
PAUN 181956Z AUTO 00000KT 10SM BKN100 00/M02 A2952 RMK AO2 UPB30E55SNE30 SLP001 P0000 T00001017 FZRANO
PAUN 181917Z AUTO 35005KT 8SM -SN FEW012 SCT016 SCT025 M01/M02 A2952 RMK AO2 P0000 FZRANO
PAUN 181910Z AUTO 31004KT 4SM -SN BR FEW012 BKN016 BKN025 M02/M03 A2952 RMK AO2 P0000 FZRANO
PAUN 181906Z AUTO 00000KT 1 1/4SM -SN BR FEW009 BKN016 BKN025 M02/M03 A2952 RMK AO2 P0000 FZRANO
PAUN 181859Z AUTO 00000KT 1SM -SN BR SCT011 SCT016 BKN025 M03/M04 A2952 RMK AO2 P0000 FZRANO
PAUN 181856Z AUTO 14003KT 2SM -SN BR FEW009 SCT016 SCT024 M03/M04 A2952 RMK AO2 SNB31 SLP001 P0000 T10281039 FZRANO
PAUN 181756Z AUTO 13004KT 10SM BKN040 M03/M04 A2952 RMK AO2 SLP000 T10331044 11017 21056 58003 FZRANO
PAUN 181656Z AUTO 06003KT 10SM OVC040 M03/M05 A2952 RMK AO2 SLP000 T10331050 FZRANO
PAUN 181556Z AUTO 09005KT 10SM OVC036 M04/M06 A2953 RMK AO2 SLP003 T10441061 FZRANO
PAUN 181456Z AUTO 34004KT 10SM CLR M04/M06 A2953 RMK AO2 SLP002 T10391056 50000 FZRANO
PAUN 181356Z AUTO 36004KT 10SM CLR M03/M06 A2953 RMK AO2 SLP003 T10281056 FZRANO
PAUN 181256Z AUTO 35006KT 10SM CLR M02/M04 A2953 RMK AO2 SLP002 T10221044 FZRANO
PAUN 181156Z AUTO 35005KT 10SM CLR M02/M04 A2953 RMK AO2 SLP002 60000 T10221039 10006 21028 57002 FZRANO
PAUN 181056Z AUTO 33005KT 10SM SCT048 M02/M04 A2953 RMK AO2 SNB0958E26 SLP003 P0000 T10171039 FZRANO
PAUN 180956Z AUTO 36006KT 10SM FEW033 BKN043 OVC090 M01/M03 A2953 RMK AO2 SLP004 T10111028 FZRANO
PAUN 180856Z AUTO 34004KT 10SM CLR M02/M03 A2953 RMK AO2 SLP004 T10171028 400281033 53005 FZRANO
PAUN 180756Z AUTO 31003KT 10SM FEW044 M01/M03 A2952 RMK AO2 SLP002 T10111028 FZRANO
PAUN 180656Z AUTO 34003KT 10SM OVC034 M01/M02 A2952 RMK AO2 SLP999 T10061022 FZRANO
PAUN 180556Z AUTO 33003KT 10SM FEW039 01/M03 A2951 RMK AO2 SLP999 T00061028 10028 20000 53007 FZRANO
PAUN 180456Z AUTO 34005KT 10SM OVC050 01/M02 A2950 RMK AO2 SLP995 T00061017 FZRANO
PAUN 180356Z AUTO 33006KT 10SM OVC048 01/M01 A2950 RMK AO2 SLP993 T00111011 FZRANO
PAUN 180315Z AUTO 34005KT 10SM FEW012 OVC048 01/M01 A2950 RMK AO2 FZRANO
PAUN 180256Z AUTO 00000KT 10SM BKN014 OVC048 01/M01 A2949 RMK AO2 SLP992 T00111006 55002 FZRANO
PAUN 180156Z AUTO 30005KT 10SM OVC014 02/M01 A2949 RMK AO2 SLP990 T00171011 FZRANO
PAUN 180056Z AUTO 30008KT 10SM BKN020 02/M01 A2950 RMK AO2 SLP992 T00221011 FZRANO